createdAt,value
2022-10-31T00:01:50.793Z,73.60
2022-10-31T00:05:52.783Z,73.50
2022-10-31T00:09:54.379Z,73.70
2022-10-31T00:13:57.399Z,73.40
2022-10-31T00:18:00.082Z,73.30
2022-10-31T00:22:02.108Z,73.20
2022-10-31T00:26:04.968Z,72.90
2022-10-31T00:30:07.121Z,72.70
2022-10-31T00:34:08.717Z,72.60
2022-10-31T00:38:10.282Z,72.70
2022-10-31T00:42:11.861Z,72.50
2022-10-31T00:46:13.958Z,72.60
2022-10-31T00:50:15.583Z,72.50
2022-10-31T00:54:17.163Z,72.40
2022-10-31T00:58:18.746Z,72.30
2022-10-31T01:02:20.519Z,72.50
2022-10-31T01:06:22.223Z,72.20
2022-10-31T01:10:24.195Z,72.20
2022-10-31T01:14:25.872Z,72.30
2022-10-31T01:18:28.736Z,72.40
2022-10-31T01:22:30.338Z,72.50
2022-10-31T01:26:33.940Z,72.40
2022-10-31T01:30:35.566Z,72.30
2022-10-31T01:34:37.146Z,72.50
2022-10-31T01:38:38.973Z,72.50
2022-10-31T01:42:41.208Z,72.50
2022-10-31T01:46:47.763Z,72.50
2022-10-31T01:50:52.272Z,72.50
2022-10-31T01:55:05.014Z,73.10
2022-10-31T01:59:12.205Z,72.90
2022-10-31T02:03:13.945Z,73.20
2022-10-31T02:07:22.031Z,73.30
2022-10-31T02:11:24.115Z,73.10
2022-10-31T02:15:25.765Z,73.10
2022-10-31T02:19:52.795Z,73.00
2022-10-31T02:24:12.944Z,73.10
2022-10-31T02:28:35.807Z,72.90
2022-10-31T02:33:26.821Z,72.20
2022-10-31T02:37:50.032Z,71.30
2022-10-31T02:42:03.617Z,70.30
2022-10-31T02:46:38.434Z,69.40
2022-10-31T02:50:45.976Z,68.20
2022-10-31T02:54:48.931Z,67.40
2022-10-31T02:58:55.310Z,66.90
2022-10-31T03:03:20.251Z,66.40
2022-10-31T03:08:01.748Z,66.10
2022-10-31T03:12:12.526Z,66.10
2022-10-31T03:16:20.676Z,65.00
2022-10-31T03:20:27.185Z,64.70
2022-10-31T03:24:33.199Z,64.70
2022-10-31T03:28:55.571Z,64.90
2022-10-31T03:32:59.956Z,64.90
2022-10-31T03:37:05.756Z,65.00
2022-10-31T03:41:11.418Z,65.20
2022-10-31T03:45:21.948Z,65.30
2022-10-31T03:49:24.116Z,65.60
2022-10-31T03:53:32.908Z,65.50
2022-10-31T03:57:46.502Z,65.50
2022-10-31T04:01:53.548Z,65.90
2022-10-31T04:05:57.683Z,66.10
2022-10-31T04:10:03.273Z,66.30
2022-10-31T04:14:06.787Z,66.60
2022-10-31T04:18:08.565Z,66.50
2022-10-31T04:22:10.297Z,66.50
2022-10-31T04:26:13.348Z,66.60
2022-10-31T04:30:15.049Z,66.70
2022-10-31T04:34:16.736Z,67.00
2022-10-31T04:38:18.308Z,66.90
2022-10-31T04:42:19.960Z,67.00
2022-10-31T04:50:24.450Z,66.60
2022-10-31T04:54:26.004Z,65.80
2022-10-31T04:58:28.381Z,65.90
2022-10-31T05:02:30.037Z,66.90
2022-10-31T05:06:31.770Z,67.60
2022-10-31T05:10:33.449Z,68.50
2022-10-31T05:14:35.031Z,68.90
2022-10-31T05:18:36.646Z,69.60
2022-10-31T05:22:38.426Z,70.10
2022-10-31T05:26:40.045Z,70.80
2022-10-31T05:30:41.694Z,71.50
2022-10-31T05:34:43.331Z,72.20
2022-10-31T05:38:44.951Z,72.50
2022-10-31T05:42:47.250Z,72.90
2022-10-31T05:46:49.046Z,73.10
2022-10-31T05:50:50.779Z,73.20
2022-10-31T05:54:52.351Z,73.20
2022-10-31T05:58:53.933Z,73.20
2022-10-31T06:03:03.148Z,72.80
2022-10-31T06:07:04.789Z,72.70
2022-10-31T06:11:06.418Z,72.60
2022-10-31T06:15:09.566Z,72.40
2022-10-31T06:19:11.360Z,72.60
2022-10-31T06:23:12.997Z,72.40
2022-10-31T06:27:14.674Z,72.70
2022-10-31T06:31:16.280Z,72.90
2022-10-31T06:35:18.387Z,72.90
2022-10-31T06:39:20.245Z,72.90
2022-10-31T06:43:23.226Z,73.10
2022-10-31T06:47:24.890Z,73.10
2022-10-31T06:51:26.989Z,73.10
2022-10-31T06:55:28.712Z,73.20
2022-10-31T06:59:30.446Z,73.50
2022-10-31T07:03:32.074Z,73.40
2022-10-31T07:07:33.657Z,73.60
2022-10-31T07:11:35.290Z,73.50
2022-10-31T07:15:38.714Z,73.60
2022-10-31T07:19:40.345Z,73.70
2022-10-31T07:23:41.950Z,73.90
2022-10-31T07:27:44.339Z,74.10
2022-10-31T07:31:47.285Z,74.50
2022-10-31T07:35:48.848Z,75.20
2022-10-31T07:39:50.552Z,75.30
2022-10-31T07:47:59.152Z,76.20
2022-10-31T07:52:01.222Z,76.50
2022-10-31T07:56:02.847Z,76.80
2022-10-31T08:00:10.057Z,76.50
2022-10-31T08:04:11.685Z,76.70
2022-10-31T08:08:14.306Z,76.40
2022-10-31T08:12:15.938Z,75.70
2022-10-31T08:16:17.511Z,75.40
2022-10-31T08:20:19.576Z,75.10
2022-10-31T08:24:23.989Z,75.20
2022-10-31T08:28:25.772Z,75.60
2022-10-31T08:32:27.375Z,75.50
2022-10-31T08:36:29.504Z,76.00
2022-10-31T08:40:33.108Z,76.40
2022-10-31T08:44:34.687Z,76.90
2022-10-31T08:48:36.314Z,76.10
2022-10-31T08:53:03.035Z,76.40
2022-10-31T08:56:59.562Z,76.80
2022-10-31T09:01:02.395Z,77.10
2022-10-31T09:05:04.267Z,77.30
2022-10-31T09:09:05.984Z,78.10
2022-10-31T09:13:16.100Z,78.50
2022-10-31T09:17:17.681Z,77.40
2022-10-31T09:21:19.396Z,77.40
2022-10-31T09:25:20.973Z,78.40
2022-10-31T09:29:22.696Z,79.50
2022-10-31T09:33:24.527Z,80.40
2022-10-31T09:37:26.089Z,81.50
2022-10-31T09:41:51.823Z,82.30
2022-10-31T09:46:13.177Z,83.00
2022-10-31T09:50:30.004Z,83.80
2022-10-31T09:54:53.351Z,84.10
2022-10-31T09:58:59.222Z,84.40
2022-10-31T10:03:15.664Z,84.70
2022-10-31T10:07:40.464Z,85.20
2022-10-31T10:12:10.538Z,85.10
2022-10-31T10:16:39.080Z,83.60
2022-10-31T10:20:54.012Z,83.20
2022-10-31T10:25:14.894Z,83.40
2022-10-31T10:29:37.799Z,83.70
2022-10-31T10:33:58.386Z,84.30
2022-10-31T10:42:32.081Z,85.80
2022-10-31T10:47:27.560Z,86.40
2022-10-31T10:52:20.305Z,86.80
2022-10-31T10:56:55.827Z,87.00
2022-10-31T11:00:57.681Z,87.10
2022-10-31T11:05:02.071Z,87.10
2022-10-31T11:09:11.295Z,87.30
2022-10-31T11:13:18.540Z,88.10
2022-10-31T11:17:31.628Z,88.50
2022-10-31T11:21:35.560Z,89.00
2022-10-31T11:25:37.307Z,90.70
2022-10-31T11:29:39.087Z,89.90
2022-10-31T11:33:46.012Z,90.00
2022-10-31T11:37:50.436Z,90.10
2022-10-31T11:41:55.115Z,89.80
2022-10-31T11:45:57.699Z,89.80
2022-10-31T11:50:03.962Z,89.90
2022-10-31T11:54:06.418Z,90.10
2022-10-31T11:58:26.256Z,90.10
2022-10-31T12:02:28.235Z,90.10
2022-10-31T12:06:34.725Z,90.20
2022-10-31T12:10:52.554Z,90.20
2022-10-31T12:15:21.280Z,90.30
2022-10-31T12:19:46.053Z,90.50
2022-10-31T12:23:53.438Z,90.50
2022-10-31T12:27:55.018Z,90.70
2022-10-31T12:32:35.790Z,90.90
2022-10-31T12:37:06.957Z,91.00
2022-10-31T12:41:34.926Z,91.10
2022-10-31T12:45:36.479Z,91.10
2022-10-31T12:49:46.919Z,91.10
2022-10-31T12:53:53.957Z,91.20
2022-10-31T12:58:03.129Z,91.50
2022-10-31T13:02:14.525Z,91.60
2022-10-31T13:06:31.861Z,91.70
2022-10-31T13:10:48.951Z,91.80
2022-10-31T13:14:55.541Z,91.70
2022-10-31T13:19:30.407Z,91.70
2022-10-31T13:23:50.377Z,91.60
2022-10-31T13:28:01.802Z,91.50
2022-10-31T13:32:07.963Z,91.50
2022-10-31T13:36:15.485Z,91.40
2022-10-31T13:40:37.723Z,91.30
2022-10-31T13:44:39.469Z,90.50
2022-10-31T13:48:43.437Z,90.30
2022-10-31T13:52:45.097Z,90.30
2022-10-31T13:56:51.121Z,90.50
2022-10-31T14:01:16.220Z,90.80
2022-10-31T14:05:27.084Z,91.20
2022-10-31T14:09:32.599Z,91.50
2022-10-31T14:13:39.162Z,91.60
2022-10-31T14:17:57.956Z,91.70
2022-10-31T14:21:59.678Z,92.00
2022-10-31T14:26:27.307Z,92.20
2022-10-31T14:30:30.360Z,92.30
2022-10-31T14:34:37.556Z,92.60
2022-10-31T14:39:00.646Z,92.70
2022-10-31T14:43:26.387Z,92.90
2022-10-31T14:48:07.065Z,93.10
2022-10-31T14:52:15.195Z,93.20
2022-10-31T14:56:30.584Z,93.30
2022-10-31T15:00:33.836Z,93.20
2022-10-31T15:04:36.846Z,93.10
2022-10-31T15:08:46.467Z,93.10
2022-10-31T15:12:48.301Z,93.00
2022-10-31T15:16:50.355Z,93.20
2022-10-31T15:20:53.903Z,93.40
2022-10-31T15:24:57.295Z,93.60
2022-10-31T15:29:04.265Z,94.10
2022-10-31T15:33:21.714Z,94.00
2022-10-31T15:37:25.856Z,94.00
2022-10-31T15:41:30.725Z,94.00
2022-10-31T15:45:32.628Z,94.00
2022-10-31T15:49:37.861Z,94.30
2022-10-31T15:53:49.214Z,94.60
2022-10-31T15:58:00.478Z,94.90
2022-10-31T16:02:04.493Z,95.30
2022-10-31T16:06:06.840Z,95.30
2022-10-31T16:10:24.976Z,95.40
2022-10-31T16:14:29.858Z,95.50
2022-10-31T16:18:37.727Z,95.70
2022-10-31T16:22:40.585Z,95.80
2022-10-31T16:26:42.608Z,95.80
2022-10-31T16:30:49.908Z,95.80
2022-10-31T16:35:10.291Z,95.70
2022-10-31T16:39:12.322Z,95.70
2022-10-31T16:43:16.020Z,95.50
2022-10-31T16:47:18.584Z,95.30
2022-10-31T16:51:20.356Z,94.90
2022-10-31T16:55:22.196Z,94.70
2022-10-31T16:59:23.784Z,94.40
2022-10-31T17:03:25.550Z,94.10
2022-10-31T17:07:27.143Z,93.70
2022-10-31T17:11:28.780Z,93.30
2022-10-31T17:15:37.999Z,93.10
2022-10-31T17:19:39.596Z,92.80
2022-10-31T17:23:44.154Z,92.40
2022-10-31T17:27:47.414Z,92.20
2022-10-31T17:31:49.443Z,92.10
2022-10-31T17:35:51.656Z,91.80
2022-10-31T17:39:53.354Z,91.60
2022-10-31T17:43:56.559Z,91.60
2022-10-31T17:47:58.152Z,91.50
2022-10-31T17:51:59.847Z,91.70
2022-10-31T17:56:09.086Z,91.50
2022-10-31T18:00:16.373Z,89.60
2022-10-31T18:04:17.986Z,88.20
2022-10-31T18:08:19.651Z,88.10
2022-10-31T18:12:21.229Z,88.50
2022-10-31T18:16:23.500Z,89.10
2022-10-31T18:20:25.226Z,90.00
2022-10-31T18:24:28.930Z,90.00
2022-10-31T18:28:30.507Z,90.40
2022-10-31T18:32:32.091Z,90.40
2022-10-31T18:36:34.110Z,90.40
2022-10-31T18:40:36.099Z,90.20
2022-10-31T18:44:38.142Z,89.90
2022-10-31T18:48:42.183Z,89.30
2022-10-31T18:52:43.855Z,88.70
2022-10-31T18:56:45.512Z,88.20
2022-10-31T19:00:47.680Z,87.00
2022-10-31T19:04:49.266Z,86.00
2022-10-31T19:08:56.203Z,85.30
2022-10-31T19:12:57.956Z,84.00
2022-10-31T19:17:02.192Z,82.80
2022-10-31T19:21:08.904Z,81.20
2022-10-31T19:25:11.114Z,80.10
2022-10-31T19:29:12.945Z,78.40
2022-10-31T19:33:14.528Z,76.90
2022-10-31T19:37:16.140Z,75.50
2022-10-31T19:41:26.652Z,73.80
2022-10-31T19:45:28.289Z,71.80
2022-10-31T19:49:29.868Z,69.70
2022-10-31T19:53:32.411Z,67.90
2022-10-31T19:57:56.607Z,65.80
2022-10-31T20:01:58.088Z,64.30
2022-10-31T20:06:03.389Z,62.20
2022-10-31T20:10:05.418Z,60.60
2022-10-31T20:14:08.707Z,59.40
2022-10-31T20:18:10.297Z,57.90
2022-10-31T20:22:12.185Z,56.50
2022-10-31T20:26:18.961Z,55.40
2022-10-31T20:30:20.810Z,54.40
2022-10-31T20:34:22.380Z,53.30
2022-10-31T20:38:24.025Z,51.80
2022-10-31T20:42:25.708Z,50.60
2022-10-31T20:46:27.507Z,49.10
2022-10-31T20:50:29.412Z,47.50
2022-10-31T20:54:31.132Z,46.50
2022-10-31T20:58:32.971Z,45.60
2022-10-31T21:02:34.673Z,44.80
2022-10-31T21:06:36.409Z,44.30
2022-10-31T21:10:40.189Z,43.50
2022-10-31T21:14:41.754Z,43.80
2022-10-31T21:18:44.738Z,44.00
2022-10-31T21:22:46.379Z,40.40
2022-10-31T21:26:50.728Z,38.30
2022-10-31T21:30:52.362Z,36.90
2022-10-31T21:34:53.955Z,35.90
2022-10-31T21:38:56.437Z,35.30
2022-10-31T21:42:58.765Z,34.80
2022-10-31T21:47:09.652Z,34.80
2022-10-31T21:51:16.794Z,34.70
2022-10-31T21:55:18.432Z,35.10
2022-10-31T21:59:20.124Z,34.80
2022-10-31T22:03:21.752Z,34.70
2022-10-31T22:07:23.429Z,34.30
2022-10-31T22:11:25.373Z,33.80
2022-10-31T22:15:27.157Z,33.20
2022-10-31T22:19:28.794Z,32.60
2022-10-31T22:23:30.952Z,32.10
2022-10-31T22:27:32.544Z,31.80
2022-10-31T22:31:37.525Z,31.60
2022-10-31T22:35:39.117Z,31.00
2022-10-31T22:39:40.689Z,30.40
2022-10-31T22:43:42.312Z,30.40
2022-10-31T22:47:43.974Z,30.10
2022-10-31T22:51:46.124Z,30.20
2022-10-31T22:55:50.244Z,30.00
2022-10-31T22:59:51.808Z,29.80
2022-10-31T23:03:53.468Z,30.30
2022-10-31T23:07:55.035Z,30.30
2022-10-31T23:12:16.706Z,31.30
2022-10-31T23:16:18.279Z,30.20
2022-10-31T23:20:19.848Z,31.90
2022-10-31T23:24:25.345Z,30.10
2022-10-31T23:28:26.914Z,30.40
2022-10-31T23:32:37.344Z,30.70
2022-10-31T23:36:38.923Z,31.00
2022-10-31T23:40:40.606Z,31.40
2022-10-31T23:44:42.765Z,31.70
2022-10-31T23:48:47.951Z,31.60
2022-10-31T23:52:49.563Z,31.90
2022-10-31T23:56:51.380Z,32.60
